createdAt,value
2022-11-04T00:01:23.196Z,99957.28
2022-11-04T00:03:49.640Z,99958.63
2022-11-04T00:06:25.815Z,99957.22
2022-11-04T00:08:55.716Z,99964.63
2022-11-04T00:11:40.891Z,99962.44
2022-11-04T00:14:07.527Z,99958.75
2022-11-04T00:16:52.719Z,99962.44
2022-11-04T00:19:19.037Z,99958.75
2022-11-04T00:22:04.177Z,99958.75
2022-11-04T00:24:42.274Z,99953.78
2022-11-04T00:27:30.256Z,99954.47
2022-11-04T00:29:56.638Z,99948.63
2022-11-04T00:32:41.352Z,99947.84
2022-11-04T00:35:07.933Z,99942.81
2022-11-04T00:37:37.829Z,99946.41
2022-11-04T00:40:04.205Z,99945.63
2022-11-04T00:42:30.536Z,99951.41
2022-11-04T00:44:56.905Z,99944.19
2022-11-04T00:47:23.484Z,99943.44
2022-11-04T00:49:49.823Z,99932.66
2022-11-04T00:52:16.129Z,99919.69
2022-11-04T00:54:42.432Z,99920.44
2022-11-04T00:57:09.351Z,99913.94
2022-11-04T00:59:35.660Z,99919.69
2022-11-04T01:02:02.043Z,99913.88
2022-11-04T01:04:28.420Z,99913.88
2022-11-04T01:06:54.720Z,99908.13
2022-11-04T01:09:21.028Z,99908.19
2022-11-04T01:11:47.408Z,99912.53
2022-11-04T01:14:13.711Z,99919.69
2022-11-04T01:16:40.090Z,99924.69
2022-11-04T01:19:06.712Z,99914.63
2022-11-04T01:21:33.045Z,99911.69
2022-11-04T01:23:59.433Z,99914.56
2022-11-04T01:26:25.988Z,99916.69
2022-11-04T01:28:52.875Z,99918.78
2022-11-04T01:31:21.445Z,99926.72
2022-11-04T01:33:47.836Z,99915.91
2022-11-04T01:36:14.311Z,99908.00
2022-11-04T01:38:40.631Z,99918.09
2022-11-04T01:41:07.208Z,99913.75
2022-11-04T01:43:43.336Z,99908.06
2022-11-04T01:46:09.646Z,99903.66
2022-11-04T01:48:36.070Z,99907.94
2022-11-04T01:51:02.393Z,99915.16
2022-11-04T01:53:29.941Z,99907.94
2022-11-04T01:55:56.749Z,99909.38
2022-11-04T01:58:23.460Z,99909.41
2022-11-04T02:00:49.788Z,99899.25
2022-11-04T02:03:17.139Z,99900.72
2022-11-04T02:05:43.515Z,99900.72
2022-11-04T02:08:09.940Z,99896.38
2022-11-04T02:10:37.484Z,99886.34
2022-11-04T02:13:04.151Z,99890.63
2022-11-04T02:15:36.271Z,99886.28
2022-11-04T02:18:05.952Z,99887.75
2022-11-04T02:20:44.419Z,99896.31
2022-11-04T02:23:19.745Z,99889.84
2022-11-04T02:26:06.128Z,99880.47
2022-11-04T02:28:44.919Z,99884.81
2022-11-04T02:31:26.291Z,99870.41
2022-11-04T02:33:53.902Z,99866.81
2022-11-04T02:36:22.507Z,99855.31
2022-11-04T02:38:51.238Z,99855.97
2022-11-04T02:41:21.990Z,99847.34
2022-11-04T02:43:50.663Z,99853.84
2022-11-04T02:46:22.245Z,99839.47
2022-11-04T02:48:53.871Z,99845.88
2022-11-04T02:51:25.730Z,99863.88
2022-11-04T02:54:10.816Z,99854.56
2022-11-04T02:56:41.136Z,99859.53
2022-11-04T02:59:08.478Z,99851.63
2022-11-04T03:01:35.297Z,99845.88
2022-11-04T03:04:03.415Z,99847.34
2022-11-04T03:06:29.732Z,99838.66
2022-11-04T03:08:56.050Z,99836.47
2022-11-04T03:11:23.097Z,99834.38
2022-11-04T03:13:57.760Z,99834.31
2022-11-04T03:16:26.576Z,99838.66
2022-11-04T03:19:08.039Z,99851.53
2022-11-04T03:21:35.352Z,99874.59
2022-11-04T03:24:01.837Z,99883.22
2022-11-04T03:26:47.005Z,99876.00
2022-11-04T03:29:13.271Z,99892.53
2022-11-04T03:31:44.052Z,99881.75
2022-11-04T03:34:10.351Z,99890.44
2022-11-04T03:36:36.673Z,99884.69
2022-11-04T03:39:02.992Z,99883.94
2022-11-04T03:41:34.433Z,99884.69
2022-11-04T03:44:00.802Z,99890.50
2022-11-04T03:46:27.178Z,99889.16
2022-11-04T03:48:53.479Z,99887.00
2022-11-04T03:51:19.804Z,99882.72
2022-11-04T03:53:46.120Z,99883.41
2022-11-04T03:56:31.232Z,99881.25
2022-11-04T03:58:58.275Z,99889.22
2022-11-04T04:01:36.633Z,99887.88
2022-11-04T04:04:10.143Z,99892.19
2022-11-04T04:06:36.459Z,99898.00
2022-11-04T04:09:05.591Z,99891.53
2022-11-04T04:11:50.713Z,99893.06
2022-11-04T04:14:41.411Z,99890.94
2022-11-04T04:17:21.359Z,99895.19
2022-11-04T04:19:54.632Z,99883.03
2022-11-04T04:22:22.558Z,99888.09
2022-11-04T04:25:07.702Z,99883.09
2022-11-04T04:27:34.070Z,99883.09
2022-11-04T04:30:01.497Z,99876.56
2022-11-04T04:32:28.271Z,99876.56
2022-11-04T04:35:14.549Z,99890.94
2022-11-04T04:37:40.883Z,99882.31
2022-11-04T04:40:25.953Z,99878.06
2022-11-04T04:43:11.434Z,99875.19
2022-11-04T04:45:38.321Z,99873.75
2022-11-04T04:48:04.635Z,99883.88
2022-11-04T04:50:31.573Z,99888.97
2022-11-04T04:52:58.011Z,99883.22
2022-11-04T04:55:24.319Z,99888.25
2022-11-04T04:57:50.632Z,99891.88
2022-11-04T05:00:17.735Z,99886.81
2022-11-04T05:02:44.181Z,99888.25
2022-11-04T05:05:10.802Z,99890.41
2022-11-04T05:07:37.155Z,99894.72
2022-11-04T05:10:03.682Z,99888.97
2022-11-04T05:12:48.471Z,99889.69
2022-11-04T05:15:14.787Z,99890.41
2022-11-04T05:17:41.105Z,99892.56
2022-11-04T05:20:07.741Z,99889.69
2022-11-04T05:22:34.068Z,99902.66
2022-11-04T05:25:00.398Z,99899.09
2022-11-04T05:27:26.704Z,99907.06
2022-11-04T05:29:53.030Z,99900.63
2022-11-04T05:32:19.349Z,99921.50
2022-11-04T05:34:45.665Z,99920.03
2022-11-04T05:37:11.969Z,99922.25
2022-11-04T05:39:38.292Z,99927.25
2022-11-04T05:42:04.595Z,99922.94
2022-11-04T05:44:30.915Z,99931.50
2022-11-04T05:46:57.219Z,99931.50
2022-11-04T05:49:23.544Z,99925.75
2022-11-04T05:51:49.900Z,99936.59
2022-11-04T05:54:16.216Z,99943.06
2022-11-04T05:56:42.524Z,99938.03
2022-11-04T05:59:08.844Z,99943.84
2022-11-04T06:01:36.036Z,99951.81
2022-11-04T06:04:02.554Z,99938.91
2022-11-04T06:06:29.691Z,99928.06
2022-11-04T06:08:56.526Z,99937.44
2022-11-04T06:11:22.835Z,99953.34
2022-11-04T06:13:49.137Z,99966.94
2022-11-04T06:16:15.453Z,99971.25
2022-11-04T06:18:41.783Z,99966.94
2022-11-04T06:21:20.069Z,99974.16
2022-11-04T06:23:46.377Z,99961.84
2022-11-04T06:26:12.697Z,99966.16
2022-11-04T06:28:39.137Z,99973.44
2022-11-04T06:31:06.019Z,99980.69
2022-11-04T06:33:36.548Z,99974.91
2022-11-04T06:36:03.637Z,99985.00
2022-11-04T06:38:30.539Z,99987.94
2022-11-04T06:40:56.976Z,99990.09
2022-11-04T06:43:23.328Z,99996.59
2022-11-04T06:45:53.317Z,99995.13
2022-11-04T06:48:19.636Z,100012.41
2022-11-04T06:50:45.949Z,100005.88
2022-11-04T06:53:12.291Z,100014.53
2022-11-04T06:55:38.613Z,100018.16
2022-11-04T06:58:04.918Z,100010.91
2022-11-04T07:00:31.265Z,100023.91
2022-11-04T07:02:57.605Z,100033.94
2022-11-04T07:05:23.963Z,100029.69
2022-11-04T07:07:50.335Z,100028.19
2022-11-04T07:10:17.146Z,100034.69
2022-11-04T07:12:43.628Z,100028.31
2022-11-04T07:15:10.103Z,100029.03
2022-11-04T07:17:36.404Z,100018.94
2022-11-04T07:20:02.899Z,100003.88
2022-11-04T07:22:29.203Z,100006.75
2022-11-04T07:24:55.517Z,100007.50
2022-11-04T07:27:21.864Z,100014.00
2022-11-04T07:29:48.172Z,100006.75
2022-11-04T07:32:14.476Z,100021.13
2022-11-04T07:34:40.816Z,100022.56
2022-11-04T07:37:07.135Z,100016.81
2022-11-04T07:39:33.449Z,100011.03
2022-11-04T07:41:59.917Z,100011.03
2022-11-04T07:44:26.351Z,100011.03
2022-11-04T07:46:52.700Z,100012.50
2022-11-04T07:49:19.013Z,100009.63
2022-11-04T07:51:45.410Z,100008.28
2022-11-04T07:54:11.732Z,100014.78
2022-11-04T07:56:38.046Z,100009.75
2022-11-04T07:59:07.390Z,100004.00
2022-11-04T08:01:33.745Z,99998.91
2022-11-04T08:04:00.152Z,100006.88
2022-11-04T08:06:26.463Z,99999.66
2022-11-04T08:08:54.027Z,99992.47
2022-11-04T08:11:21.457Z,99992.41
2022-11-04T08:13:47.785Z,99992.41
2022-11-04T08:16:15.184Z,99995.22
2022-11-04T08:18:41.604Z,99985.19
2022-11-04T08:21:07.990Z,99989.47
2022-11-04T08:23:34.305Z,100003.88
2022-11-04T08:26:00.617Z,100013.91
2022-11-04T08:28:27.126Z,100021.84
2022-11-04T08:31:01.317Z,100028.25
2022-11-04T08:33:27.651Z,100041.19
2022-11-04T08:35:54.151Z,100044.06
2022-11-04T08:38:20.483Z,100041.19
2022-11-04T08:40:46.818Z,100044.72
2022-11-04T08:43:13.155Z,100042.50
2022-11-04T08:45:40.092Z,100046.09
2022-11-04T08:48:06.676Z,100043.94
2022-11-04T08:50:33.313Z,100046.81
2022-11-04T08:52:59.624Z,100039.63
2022-11-04T08:55:28.197Z,100050.38
2022-11-04T08:57:54.504Z,100044.59
2022-11-04T09:00:21.058Z,100041.72
2022-11-04T09:02:47.566Z,100040.34
2022-11-04T09:05:15.363Z,100046.03
2022-11-04T09:07:42.062Z,100051.03
2022-11-04T09:10:08.931Z,100053.16
2022-11-04T09:12:35.249Z,100046.69
2022-11-04T09:15:01.831Z,100048.16
2022-11-04T09:17:28.144Z,100049.56
2022-11-04T09:19:54.493Z,100043.81
2022-11-04T09:22:20.831Z,100042.34
2022-11-04T09:24:47.163Z,100040.81
2022-11-04T09:27:13.487Z,100024.25
2022-11-04T09:29:41.030Z,100029.28
2022-11-04T09:32:07.672Z,100026.47
2022-11-04T09:34:34.001Z,100025.00
2022-11-04T09:37:00.304Z,100033.66
2022-11-04T09:39:26.868Z,100030.78
2022-11-04T09:41:56.095Z,100023.47
2022-11-04T09:44:27.136Z,100004.81
2022-11-04T09:46:54.697Z,100014.16
2022-11-04T09:49:21.024Z,100014.97
2022-11-04T09:51:54.293Z,100017.91
2022-11-04T09:54:25.377Z,100011.41
2022-11-04T09:56:51.864Z,100007.84
2022-11-04T09:59:23.269Z,100017.31
2022-11-04T10:01:53.072Z,100029.53
2022-11-04T10:04:22.588Z,100045.47
2022-11-04T10:07:06.360Z,100063.47
2022-11-04T10:09:35.926Z,100062.72
2022-11-04T10:12:05.813Z,100063.47
2022-11-04T10:14:58.066Z,100064.94
2022-11-04T10:17:34.116Z,100056.97
2022-11-04T10:20:03.969Z,100055.59
2022-11-04T10:22:35.102Z,100046.19
2022-11-04T10:25:22.620Z,100046.94
2022-11-04T10:27:48.931Z,100048.34
2022-11-04T10:30:19.632Z,100051.22
2022-11-04T10:33:01.339Z,100052.63
2022-11-04T10:35:38.102Z,100056.97
2022-11-04T10:38:30.509Z,100069.97
2022-11-04T10:40:57.143Z,100074.38
2022-11-04T10:43:29.451Z,100078.72
2022-11-04T10:46:01.894Z,100081.59
2022-11-04T10:48:29.547Z,100088.84
2022-11-04T10:50:56.259Z,100091.72
2022-11-04T10:53:29.537Z,100095.25
2022-11-04T10:56:03.632Z,100087.41
2022-11-04T10:58:35.365Z,100084.53
2022-11-04T11:01:21.815Z,100084.53
2022-11-04T11:03:48.229Z,100081.59
2022-11-04T11:06:23.995Z,100087.34
2022-11-04T11:08:50.303Z,100100.28
2022-11-04T11:11:16.800Z,100103.16
2022-11-04T11:13:43.934Z,100103.91
2022-11-04T11:16:20.067Z,100113.31
2022-11-04T11:18:50.958Z,100118.50
2022-11-04T11:21:21.384Z,100133.53
2022-11-04T11:23:48.458Z,100138.50
2022-11-04T11:26:18.628Z,100138.50
2022-11-04T11:28:48.578Z,100141.38
2022-11-04T11:31:23.337Z,100145.00
2022-11-04T11:33:51.045Z,100145.06
2022-11-04T11:36:21.355Z,100149.44
2022-11-04T11:38:53.800Z,100149.47
2022-11-04T11:41:25.328Z,100149.47
2022-11-04T11:43:52.690Z,100139.50
2022-11-04T11:46:22.527Z,100144.03
2022-11-04T11:48:52.511Z,100139.63
2022-11-04T11:51:31.549Z,100120.81
2022-11-04T11:57:14.673Z,100115.75
2022-11-04T12:02:44.405Z,100125.09
2022-11-04T12:10:56.311Z,100128.00
2022-11-04T12:13:29.007Z,100130.88
2022-11-04T12:16:04.288Z,100136.63
2022-11-04T12:18:47.486Z,100125.91
2022-11-04T12:21:15.961Z,100124.47
2022-11-04T12:23:45.587Z,100132.47
2022-11-04T12:26:30.292Z,100125.25
2022-11-04T12:29:03.119Z,100118.13
2022-11-04T12:31:29.371Z,100123.81
2022-11-04T12:33:59.558Z,100115.97
2022-11-04T12:36:44.662Z,100123.16
2022-11-04T12:39:13.695Z,100125.34
2022-11-04T12:42:06.848Z,100135.41
2022-11-04T12:44:37.292Z,100123.88
2022-11-04T12:47:07.280Z,100131.03
2022-11-04T12:49:45.836Z,100148.31
2022-11-04T12:52:21.342Z,100132.47
2022-11-04T12:54:53.993Z,100148.28
2022-11-04T12:57:35.463Z,100147.53
2022-11-04T13:00:09.177Z,100149.75
2022-11-04T13:02:45.985Z,100143.97
2022-11-04T13:05:18.629Z,100152.53
2022-11-04T13:07:46.803Z,100156.84
2022-11-04T13:10:18.811Z,100162.59
2022-11-04T13:12:45.139Z,100161.13
2022-11-04T13:15:14.452Z,100161.84
2022-11-04T13:17:40.775Z,100169.75
2022-11-04T13:20:14.004Z,100165.41
2022-11-04T13:22:41.820Z,100171.19
2022-11-04T13:25:15.861Z,100165.41
2022-11-04T13:27:45.051Z,100167.50
2022-11-04T13:30:29.692Z,100174.00
2022-11-04T13:33:09.084Z,100176.81
2022-11-04T13:35:46.180Z,100177.53
2022-11-04T13:38:14.188Z,100179.81
2022-11-04T13:40:42.685Z,100170.44
2022-11-04T13:43:33.356Z,100174.84
2022-11-04T13:45:59.683Z,100180.00
2022-11-04T13:48:26.621Z,100174.22
2022-11-04T13:51:06.379Z,100177.19
2022-11-04T13:53:48.585Z,100169.97
2022-11-04T13:56:33.194Z,100165.66
2022-11-04T13:59:06.628Z,100162.78
2022-11-04T14:01:33.698Z,100164.25
2022-11-04T14:04:02.929Z,100152.69
2022-11-04T14:06:48.934Z,100160.59
2022-11-04T14:09:32.080Z,100154.13
2022-11-04T14:12:10.553Z,100153.41
2022-11-04T14:14:56.324Z,100158.50
2022-11-04T14:17:34.816Z,100164.25
2022-11-04T14:20:11.888Z,100161.38
2022-11-04T14:22:43.985Z,100161.97
2022-11-04T14:25:24.293Z,100168.44
2022-11-04T14:27:51.453Z,100164.13
2022-11-04T14:30:28.115Z,100167.16
2022-11-04T14:32:58.865Z,100173.56
2022-11-04T14:35:51.525Z,100181.47
2022-11-04T14:38:24.190Z,100187.97
2022-11-04T14:40:52.174Z,100180.00
2022-11-04T14:43:19.522Z,100178.53
2022-11-04T14:45:45.837Z,100187.25
2022-11-04T14:48:15.781Z,100190.06
2022-11-04T14:50:43.424Z,100195.06
2022-11-04T14:53:12.371Z,100200.09
2022-11-04T14:55:38.878Z,100206.53
2022-11-04T14:58:40.854Z,100210.13
2022-11-04T15:01:11.871Z,100214.44
2022-11-04T15:06:47.394Z,100209.34
2022-11-04T15:09:22.445Z,100218.72
2022-11-04T15:12:07.547Z,100216.56
2022-11-04T15:14:33.873Z,100214.44
2022-11-04T15:17:01.753Z,100214.44
2022-11-04T15:19:32.008Z,100213.09
2022-11-04T15:21:58.904Z,100217.38
2022-11-04T15:24:25.252Z,100203.78
2022-11-04T15:26:51.748Z,100214.53
2022-11-04T15:29:18.272Z,100213.81
2022-11-04T15:31:51.806Z,100219.56
2022-11-04T15:34:18.125Z,100224.59
2022-11-04T15:36:44.444Z,100231.81
2022-11-04T15:39:21.247Z,100237.59
2022-11-04T15:42:06.338Z,100236.19
2022-11-04T15:44:33.399Z,100231.22
2022-11-04T15:47:00.723Z,100233.31
2022-11-04T15:49:27.890Z,100239.81
2022-11-04T15:52:06.956Z,100233.31
2022-11-04T15:54:34.452Z,100231.81
2022-11-04T15:57:01.504Z,100231.09
2022-11-04T15:59:32.311Z,100240.47
2022-11-04T16:01:58.775Z,100231.22
2022-11-04T16:04:25.514Z,100224.75
2022-11-04T16:07:20.645Z,100226.94
2022-11-04T16:09:50.925Z,100252.34
2022-11-04T16:12:27.413Z,100245.13
2022-11-04T16:14:54.441Z,100252.28
2022-11-04T16:17:20.944Z,100252.19
2022-11-04T16:20:00.617Z,100254.44
2022-11-04T16:22:30.875Z,100254.34
2022-11-04T16:24:57.221Z,100259.38
2022-11-04T16:27:23.561Z,100262.25
2022-11-04T16:30:02.022Z,100262.97
2022-11-04T16:32:29.040Z,100261.50
2022-11-04T16:34:59.220Z,100270.13
2022-11-04T16:37:26.006Z,100275.16
2022-11-04T16:39:52.339Z,100278.78
2022-11-04T16:42:18.651Z,100277.97
2022-11-04T16:44:48.410Z,100280.13
2022-11-04T16:47:14.725Z,100280.06
2022-11-04T16:49:41.205Z,100287.97
2022-11-04T16:52:09.220Z,100282.19
2022-11-04T16:54:35.549Z,100291.56
2022-11-04T16:57:05.507Z,100293.00
2022-11-04T16:59:31.837Z,100298.03
2022-11-04T17:01:58.286Z,100297.25
2022-11-04T17:04:24.729Z,100295.78
2022-11-04T17:06:51.045Z,100306.59
2022-11-04T17:09:19.281Z,100307.97
2022-11-04T17:11:45.649Z,100302.16
2022-11-04T17:14:11.977Z,100309.41
2022-11-04T17:16:38.297Z,100313.66
2022-11-04T17:19:04.618Z,100313.66
2022-11-04T17:21:30.931Z,100311.53
2022-11-04T17:23:57.292Z,100313.06
2022-11-04T17:26:23.600Z,100300.81
2022-11-04T17:28:49.925Z,100301.56
2022-11-04T17:31:21.915Z,100306.59
2022-11-04T17:33:48.238Z,100311.00
2022-11-04T17:36:15.528Z,100313.94
2022-11-04T17:38:41.831Z,100315.41
2022-11-04T17:41:26.732Z,100316.91
2022-11-04T17:44:01.876Z,100329.09
2022-11-04T17:46:34.909Z,100331.22
2022-11-04T17:49:01.761Z,100331.31
2022-11-04T17:51:28.154Z,100327.63
2022-11-04T17:53:54.476Z,100323.97
2022-11-04T17:56:21.246Z,100339.88
2022-11-04T17:58:47.684Z,100334.78
2022-11-04T18:01:14.448Z,100342.69
2022-11-04T18:03:41.010Z,100345.69
2022-11-04T18:06:07.854Z,100350.84
2022-11-04T18:08:34.535Z,100347.91
2022-11-04T18:11:01.204Z,100342.88
2022-11-04T18:13:27.573Z,100347.16
2022-11-04T18:15:53.893Z,100348.66
2022-11-04T18:18:20.202Z,100357.28
2022-11-04T18:20:46.589Z,100352.91
2022-11-04T18:23:13.033Z,100349.97
2022-11-04T18:25:40.024Z,100355.00
2022-11-04T18:28:06.324Z,100351.47
2022-11-04T18:30:32.644Z,100357.22
2022-11-04T18:32:58.968Z,100358.59
2022-11-04T18:35:25.344Z,100360.03
2022-11-04T18:37:51.652Z,100362.19
2022-11-04T18:40:18.046Z,100367.19
2022-11-04T18:42:44.404Z,100365.78
2022-11-04T18:45:10.731Z,100375.81
2022-11-04T18:47:37.268Z,100374.34
2022-11-04T18:50:03.612Z,100375.81
2022-11-04T18:52:29.919Z,100365.72
2022-11-04T18:54:56.241Z,100364.19
2022-11-04T18:57:22.554Z,100371.31
2022-11-04T18:59:48.897Z,100368.44
2022-11-04T19:02:16.200Z,100377.00
2022-11-04T19:04:42.639Z,100374.13
2022-11-04T19:07:08.981Z,100381.38
2022-11-04T19:09:50.719Z,100367.66
2022-11-04T19:12:35.844Z,100361.22
2022-11-04T19:15:04.036Z,100369.94
2022-11-04T19:17:30.451Z,100380.78
2022-11-04T19:19:56.811Z,100379.38
2022-11-04T19:22:23.128Z,100375.09
2022-11-04T19:24:49.489Z,100385.94
2022-11-04T19:27:17.774Z,100386.75
2022-11-04T19:29:44.093Z,100395.41
2022-11-04T19:32:14.371Z,100383.94
2022-11-04T19:34:41.092Z,100393.25
2022-11-04T19:37:07.404Z,100380.25
2022-11-04T19:39:33.700Z,100381.72
2022-11-04T19:42:32.543Z,100386.09
2022-11-04T19:44:58.859Z,100391.78
2022-11-04T19:47:25.189Z,100393.25
2022-11-04T19:49:51.610Z,100386.03
2022-11-04T19:52:18.519Z,100386.03
2022-11-04T19:54:44.891Z,100380.84
2022-11-04T19:57:11.233Z,100377.31
2022-11-04T19:59:37.555Z,100391.78
2022-11-04T20:02:04.972Z,100386.03
2022-11-04T20:04:31.403Z,100391.72
2022-11-04T20:06:57.715Z,100394.66
2022-11-04T20:09:25.962Z,100401.81
2022-11-04T20:12:11.043Z,100401.81
2022-11-04T20:14:37.380Z,100400.34
2022-11-04T20:17:05.036Z,100411.13
2022-11-04T20:19:31.380Z,100407.50
2022-11-04T20:21:57.890Z,100418.34
2022-11-04T20:24:25.255Z,100417.63
2022-11-04T20:26:51.638Z,100416.13
2022-11-04T20:29:17.962Z,100420.50
2022-11-04T20:31:44.289Z,100426.19
2022-11-04T20:34:10.957Z,100421.91
2022-11-04T20:36:37.283Z,100427.72
2022-11-04T20:39:04.436Z,100426.34
2022-11-04T20:41:30.741Z,100424.19
2022-11-04T20:43:57.064Z,100422.03
2022-11-04T20:46:26.664Z,100429.28
2022-11-04T20:48:52.976Z,100424.25
2022-11-04T20:51:20.181Z,100430.75
2022-11-04T20:53:47.304Z,100433.75
2022-11-04T20:56:14.443Z,100433.00
2022-11-04T20:58:41.156Z,100438.00
2022-11-04T21:01:08.743Z,100443.00
2022-11-04T21:03:35.090Z,100442.28
2022-11-04T21:06:01.433Z,100449.53
2022-11-04T21:08:27.804Z,100449.53
2022-11-04T21:10:54.972Z,100450.28
2022-11-04T21:13:21.308Z,100455.28
2022-11-04T21:15:53.358Z,100452.41
2022-11-04T21:18:19.685Z,100455.28
2022-11-04T21:20:46.068Z,100458.19
2022-11-04T21:23:12.598Z,100454.53
2022-11-04T21:25:39.733Z,100463.94
2022-11-04T21:28:06.051Z,100461.06
2022-11-04T21:30:35.702Z,100462.53
2022-11-04T21:33:02.026Z,100459.75
2022-11-04T21:35:28.357Z,100465.50
2022-11-04T21:37:54.775Z,100458.31
2022-11-04T21:40:21.119Z,100468.47
2022-11-04T21:42:47.645Z,100470.69
2022-11-04T21:45:14.320Z,100466.97
2022-11-04T21:47:40.632Z,100462.69
2022-11-04T21:50:07.097Z,100468.47
2022-11-04T21:52:33.425Z,100470.59
2022-11-04T21:54:59.741Z,100472.72
2022-11-04T21:57:26.061Z,100467.72
2022-11-04T21:59:52.376Z,100472.00
2022-11-04T22:02:18.822Z,100471.34
2022-11-04T22:04:45.249Z,100474.16
2022-11-04T22:07:11.549Z,100472.72
2022-11-04T22:09:37.907Z,100475.56
2022-11-04T22:12:04.238Z,100482.06
2022-11-04T22:14:30.571Z,100485.59
2022-11-04T22:16:56.902Z,100488.53
2022-11-04T22:19:23.212Z,100492.84
2022-11-04T22:21:49.789Z,100491.34
2022-11-04T22:24:16.609Z,100493.50
2022-11-04T22:26:42.913Z,100502.88
2022-11-04T22:29:09.279Z,100501.38
2022-11-04T22:31:39.768Z,100503.59
2022-11-04T22:34:06.091Z,100502.88
2022-11-04T22:36:32.579Z,100506.38
2022-11-04T22:38:59.135Z,100504.25
2022-11-04T22:41:26.303Z,100504.91
2022-11-04T22:43:52.616Z,100504.19
2022-11-04T22:46:19.850Z,100509.19
2022-11-04T22:48:46.160Z,100504.19
2022-11-04T22:51:12.604Z,100508.44
2022-11-04T22:53:38.912Z,100510.53
2022-11-04T22:56:05.538Z,100501.22
2022-11-04T22:58:31.847Z,100513.47
2022-11-04T23:00:58.999Z,100511.31
2022-11-04T23:03:25.416Z,100516.28
2022-11-04T23:05:55.621Z,100518.44
2022-11-04T23:08:21.996Z,100519.81
2022-11-04T23:11:06.783Z,100519.81
2022-11-04T23:13:51.608Z,100521.22
2022-11-04T23:16:36.457Z,100527.06
2022-11-04T23:19:02.830Z,100512.59
2022-11-04T23:21:47.585Z,100522.69
2022-11-04T23:24:32.366Z,100527.72
2022-11-04T23:26:58.674Z,100534.16
2022-11-04T23:29:43.581Z,100532.66
2022-11-04T23:32:09.903Z,100533.41
2022-11-04T23:34:54.737Z,100537.69
2022-11-04T23:37:21.049Z,100538.44
2022-11-04T23:39:47.901Z,100539.09
2022-11-04T23:42:17.230Z,100532.59
2022-11-04T23:45:02.643Z,100536.88
2022-11-04T23:47:51.562Z,100541.22
2022-11-04T23:50:36.302Z,100541.22
2022-11-04T23:53:21.120Z,100542.56
2022-11-04T23:56:05.983Z,100547.66
2022-11-04T23:58:50.884Z,100554.81
